sensor_id;sensor_type;location;lat;lon;timestamp;P1;durP1;ratioP1;P2;durP2;ratioP2
49824;SDS011;35714;55.708;37.478;2023-08-01T00:00:50;12.45;;;5.43;;
49824;SDS011;35714;55.708;37.478;2023-08-01T00:03:16;12.25;;;5.13;;
49824;SDS011;35714;55.708;37.478;2023-08-01T00:05:42;13.48;;;6.18;;
49824;SDS011;35714;55.708;37.478;2023-08-01T00:08:11;12.07;;;5.28;;
49824;SDS011;35714;55.708;37.478;2023-08-01T00:10:43;10.73;;;5.07;;
49824;SDS011;35714;55.708;37.478;2023-08-01T00:13:08;9.98;;;5.43;;
49824;SDS011;35714;55.708;37.478;2023-08-01T00:15:34;11.43;;;5.40;;
49824;SDS011;35714;55.708;37.478;2023-08-01T00:18:01;10.18;;;5.55;;
49824;SDS011;35714;55.708;37.478;2023-08-01T00:20:26;10.55;;;5.47;;
49824;SDS011;35714;55.708;37.478;2023-08-01T00:22:52;10.82;;;5.55;;
49824;SDS011;35714;55.708;37.478;2023-08-01T00:25:18;8.23;;;5.45;;
49824;SDS011;35714;55.708;37.478;2023-08-01T00:27:44;10.88;;;5.30;;
49824;SDS011;35714;55.708;37.478;2023-08-01T00:30:10;14.00;;;5.57;;
49824;SDS011;35714;55.708;37.478;2023-08-01T00:32:36;9.15;;;5.20;;
49824;SDS011;35714;55.708;37.478;2023-08-01T00:35:03;10.73;;;5.10;;
49824;SDS011;35714;55.708;37.478;2023-08-01T00:37:31;11.80;;;5.00;;
49824;SDS011;35714;55.708;37.478;2023-08-01T00:39:56;8.18;;;5.40;;
49824;SDS011;35714;55.708;37.478;2023-08-01T00:42:22;12.70;;;5.95;;
49824;SDS011;35714;55.708;37.478;2023-08-01T00:44:48;14.88;;;6.03;;
49824;SDS011;35714;55.708;37.478;2023-08-01T00:47:15;10.80;;;6.13;;
49824;SDS011;35714;55.708;37.478;2023-08-01T00:49:41;16.30;;;7.55;;
49824;SDS011;35714;55.708;37.478;2023-08-01T00:52:08;13.48;;;6.80;;
49824;SDS011;35714;55.708;37.478;2023-08-01T00:54:35;13.98;;;6.80;;
49824;SDS011;35714;55.708;37.478;2023-08-01T00:57:05;19.90;;;8.07;;
49824;SDS011;35714;55.708;37.478;2023-08-01T00:59:31;13.35;;;6.38;;
49824;SDS011;35714;55.708;37.478;2023-08-01T01:01:58;14.52;;;6.25;;
49824;SDS011;35714;55.708;37.478;2023-08-01T01:04:25;10.60;;;6.15;;
49824;SDS011;35714;55.708;37.478;2023-08-01T01:06:52;10.43;;;5.15;;
49824;SDS011;35714;55.708;37.478;2023-08-01T01:09:31;13.77;;;5.88;;
49824;SDS011;35714;55.708;37.478;2023-08-01T01:11:58;12.60;;;5.22;;
49824;SDS011;35714;55.708;37.478;2023-08-01T01:14:28;9.55;;;5.18;;
49824;SDS011;35714;55.708;37.478;2023-08-01T01:16:54;14.77;;;5.25;;
49824;SDS011;35714;55.708;37.478;2023-08-01T01:19:21;9.48;;;5.07;;
49824;SDS011;35714;55.708;37.478;2023-08-01T01:21:47;8.27;;;5.13;;
49824;SDS011;35714;55.708;37.478;2023-08-01T01:24:13;11.02;;;5.32;;
49824;SDS011;35714;55.708;37.478;2023-08-01T01:26:41;11.05;;;4.80;;
49824;SDS011;35714;55.708;37.478;2023-08-01T01:29:08;8.32;;;4.93;;
49824;SDS011;35714;55.708;37.478;2023-08-01T01:31:35;9.27;;;5.50;;
49824;SDS011;35714;55.708;37.478;2023-08-01T01:34:02;8.95;;;5.07;;
49824;SDS011;35714;55.708;37.478;2023-08-01T01:36:29;10.98;;;5.60;;
49824;SDS011;35714;55.708;37.478;2023-08-01T01:38:55;10.63;;;5.38;;
49824;SDS011;35714;55.708;37.478;2023-08-01T01:41:21;21.67;;;13.07;;
49824;SDS011;35714;55.708;37.478;2023-08-01T01:43:48;15.90;;;7.60;;
49824;SDS011;35714;55.708;37.478;2023-08-01T01:46:14;11.80;;;6.43;;
49824;SDS011;35714;55.708;37.478;2023-08-01T01:48:40;9.20;;;5.75;;
49824;SDS011;35714;55.708;37.478;2023-08-01T01:51:07;11.48;;;6.28;;
49824;SDS011;35714;55.708;37.478;2023-08-01T01:53:33;11.23;;;6.10;;
49824;SDS011;35714;55.708;37.478;2023-08-01T01:56:00;12.73;;;6.15;;
49824;SDS011;35714;55.708;37.478;2023-08-01T01:58:27;12.60;;;6.28;;
49824;SDS011;35714;55.708;37.478;2023-08-01T02:00:53;13.63;;;6.53;;
49824;SDS011;35714;55.708;37.478;2023-08-01T02:03:19;13.23;;;6.55;;
49824;SDS011;35714;55.708;37.478;2023-08-01T02:05:44;13.52;;;6.70;;
49824;SDS011;35714;55.708;37.478;2023-08-01T02:08:10;12.15;;;6.40;;
49824;SDS011;35714;55.708;37.478;2023-08-01T02:10:36;11.77;;;6.00;;
49824;SDS011;35714;55.708;37.478;2023-08-01T02:13:02;11.50;;;6.55;;
49824;SDS011;35714;55.708;37.478;2023-08-01T02:15:27;12.13;;;6.30;;
49824;SDS011;35714;55.708;37.478;2023-08-01T02:17:54;14.60;;;6.15;;
49824;SDS011;35714;55.708;37.478;2023-08-01T02:20:21;15.82;;;5.97;;
49824;SDS011;35714;55.708;37.478;2023-08-01T02:22:47;11.07;;;5.90;;
49824;SDS011;35714;55.708;37.478;2023-08-01T02:25:13;11.23;;;5.82;;
49824;SDS011;35714;55.708;37.478;2023-08-01T02:27:40;10.73;;;6.18;;
49824;SDS011;35714;55.708;37.478;2023-08-01T02:30:05;11.13;;;5.78;;
49824;SDS011;35714;55.708;37.478;2023-08-01T02:32:34;11.07;;;6.10;;
49824;SDS011;35714;55.708;37.478;2023-08-01T02:35:02;10.52;;;6.20;;
49824;SDS011;35714;55.708;37.478;2023-08-01T02:37:30;13.05;;;6.65;;
49824;SDS011;35714;55.708;37.478;2023-08-01T02:39:56;12.48;;;6.60;;
49824;SDS011;35714;55.708;37.478;2023-08-01T02:42:22;13.27;;;7.25;;
49824;SDS011;35714;55.708;37.478;2023-08-01T02:44:48;11.48;;;6.43;;
49824;SDS011;35714;55.708;37.478;2023-08-01T02:47:14;11.13;;;6.43;;
49824;SDS011;35714;55.708;37.478;2023-08-01T02:49:39;13.80;;;6.18;;
49824;SDS011;35714;55.708;37.478;2023-08-01T02:52:05;9.27;;;6.18;;
49824;SDS011;35714;55.708;37.478;2023-08-01T02:54:31;11.85;;;5.78;;
49824;SDS011;35714;55.708;37.478;2023-08-01T02:56:56;17.17;;;7.07;;
49824;SDS011;35714;55.708;37.478;2023-08-01T02:59:22;15.90;;;6.85;;
49824;SDS011;35714;55.708;37.478;2023-08-01T03:01:49;14.60;;;6.22;;
49824;SDS011;35714;55.708;37.478;2023-08-01T03:04:14;12.38;;;6.10;;
49824;SDS011;35714;55.708;37.478;2023-08-01T03:06:40;11.73;;;6.70;;
49824;SDS011;35714;55.708;37.478;2023-08-01T03:09:06;17.35;;;6.97;;
49824;SDS011;35714;55.708;37.478;2023-08-01T03:11:35;16.08;;;6.93;;
49824;SDS011;35714;55.708;37.478;2023-08-01T03:14:02;12.38;;;5.68;;
49824;SDS011;35714;55.708;37.478;2023-08-01T03:16:30;14.75;;;6.97;;
49824;SDS011;35714;55.708;37.478;2023-08-01T03:18:56;14.85;;;7.40;;
49824;SDS011;35714;55.708;37.478;2023-08-01T03:21:21;14.10;;;7.30;;
49824;SDS011;35714;55.708;37.478;2023-08-01T03:23:47;10.57;;;7.07;;
49824;SDS011;35714;55.708;37.478;2023-08-01T03:26:13;11.02;;;5.55;;
49824;SDS011;35714;55.708;37.478;2023-08-01T03:28:40;12.75;;;6.03;;
49824;SDS011;35714;55.708;37.478;2023-08-01T03:31:06;16.85;;;6.25;;
49824;SDS011;35714;55.708;37.478;2023-08-01T03:33:32;10.70;;;5.97;;
49824;SDS011;35714;55.708;37.478;2023-08-01T03:35:59;15.88;;;6.32;;
49824;SDS011;35714;55.708;37.478;2023-08-01T03:38:24;12.55;;;6.40;;
49824;SDS011;35714;55.708;37.478;2023-08-01T03:40:50;13.75;;;5.78;;
49824;SDS011;35714;55.708;37.478;2023-08-01T03:43:16;9.98;;;5.75;;
49824;SDS011;35714;55.708;37.478;2023-08-01T03:45:42;10.40;;;5.78;;
49824;SDS011;35714;55.708;37.478;2023-08-01T03:48:07;14.27;;;5.85;;
49824;SDS011;35714;55.708;37.478;2023-08-01T03:50:33;10.40;;;5.50;;
49824;SDS011;35714;55.708;37.478;2023-08-01T03:52:59;9.10;;;5.47;;
49824;SDS011;35714;55.708;37.478;2023-08-01T03:55:24;13.18;;;6.00;;
49824;SDS011;35714;55.708;37.478;2023-08-01T03:57:50;11.80;;;4.97;;
49824;SDS011;35714;55.708;37.478;2023-08-01T04:00:16;13.75;;;6.72;;
49824;SDS011;35714;55.708;37.478;2023-08-01T04:02:44;9.05;;;5.45;;
49824;SDS011;35714;55.708;37.478;2023-08-01T04:05:10;11.13;;;6.22;;
49824;SDS011;35714;55.708;37.478;2023-08-01T04:07:36;9.38;;;4.93;;
49824;SDS011;35714;55.708;37.478;2023-08-01T04:10:03;8.32;;;5.03;;
49824;SDS011;35714;55.708;37.478;2023-08-01T04:12:33;11.77;;;6.00;;
49824;SDS011;35714;55.708;37.478;2023-08-01T04:15:00;11.13;;;5.78;;
49824;SDS011;35714;55.708;37.478;2023-08-01T04:17:26;11.18;;;5.28;;
49824;SDS011;35714;55.708;37.478;2023-08-01T04:19:52;10.52;;;6.25;;
49824;SDS011;35714;55.708;37.478;2023-08-01T04:22:18;13.45;;;6.20;;
49824;SDS011;35714;55.708;37.478;2023-08-01T04:24:44;12.38;;;5.93;;
49824;SDS011;35714;55.708;37.478;2023-08-01T04:27:10;10.73;;;5.82;;
49824;SDS011;35714;55.708;37.478;2023-08-01T04:29:35;11.57;;;5.57;;
49824;SDS011;35714;55.708;37.478;2023-08-01T04:32:01;14.15;;;6.35;;
49824;SDS011;35714;55.708;37.478;2023-08-01T04:34:27;9.77;;;5.70;;
49824;SDS011;35714;55.708;37.478;2023-08-01T04:36:52;10.98;;;6.38;;
49824;SDS011;35714;55.708;37.478;2023-08-01T04:39:18;17.30;;;9.00;;
49824;SDS011;35714;55.708;37.478;2023-08-01T04:41:44;13.27;;;6.40;;
49824;SDS011;35714;55.708;37.478;2023-08-01T04:44:09;11.68;;;5.75;;
49824;SDS011;35714;55.708;37.478;2023-08-01T04:46:35;10.10;;;5.88;;
49824;SDS011;35714;55.708;37.478;2023-08-01T04:49:01;11.50;;;6.15;;
49824;SDS011;35714;55.708;37.478;2023-08-01T04:51:27;11.80;;;6.05;;
49824;SDS011;35714;55.708;37.478;2023-08-01T04:53:52;13.85;;;6.68;;
49824;SDS011;35714;55.708;37.478;2023-08-01T04:56:18;12.90;;;6.68;;
49824;SDS011;35714;55.708;37.478;2023-08-01T04:58:44;10.05;;;5.95;;
49824;SDS011;35714;55.708;37.478;2023-08-01T05:01:09;10.65;;;5.15;;
49824;SDS011;35714;55.708;37.478;2023-08-01T05:03:35;8.95;;;4.43;;
49824;SDS011;35714;55.708;37.478;2023-08-01T05:06:01;13.65;;;6.43;;
49824;SDS011;35714;55.708;37.478;2023-08-01T05:08:26;8.35;;;5.00;;
49824;SDS011;35714;55.708;37.478;2023-08-01T05:10:52;11.05;;;4.68;;
49824;SDS011;35714;55.708;37.478;2023-08-01T05:13:18;10.13;;;4.10;;
49824;SDS011;35714;55.708;37.478;2023-08-01T05:15:44;8.82;;;4.38;;
49824;SDS011;35714;55.708;37.478;2023-08-01T05:18:16;7.53;;;4.07;;
49824;SDS011;35714;55.708;37.478;2023-08-01T05:20:42;14.00;;;8.35;;
49824;SDS011;35714;55.708;37.478;2023-08-01T05:23:08;11.25;;;7.15;;
49824;SDS011;35714;55.708;37.478;2023-08-01T05:25:34;7.15;;;4.22;;
49824;SDS011;35714;55.708;37.478;2023-08-01T05:28:00;13.52;;;4.70;;
49824;SDS011;35714;55.708;37.478;2023-08-01T05:30:25;8.15;;;4.40;;
49824;SDS011;35714;55.708;37.478;2023-08-01T05:32:51;12.75;;;5.45;;
49824;SDS011;35714;55.708;37.478;2023-08-01T05:35:17;9.95;;;4.53;;
49824;SDS011;35714;55.708;37.478;2023-08-01T05:37:43;9.30;;;3.70;;
49824;SDS011;35714;55.708;37.478;2023-08-01T05:40:09;7.63;;;3.55;;
49824;SDS011;35714;55.708;37.478;2023-08-01T05:42:35;6.15;;;3.38;;
49824;SDS011;35714;55.708;37.478;2023-08-01T05:45:01;7.25;;;3.30;;
49824;SDS011;35714;55.708;37.478;2023-08-01T05:47:27;7.53;;;3.92;;
49824;SDS011;35714;55.708;37.478;2023-08-01T05:49:53;6.15;;;3.20;;
49824;SDS011;35714;55.708;37.478;2023-08-01T05:52:18;6.72;;;3.28;;
49824;SDS011;35714;55.708;37.478;2023-08-01T05:54:44;7.65;;;4.00;;
49824;SDS011;35714;55.708;37.478;2023-08-01T05:57:10;5.53;;;2.83;;
49824;SDS011;35714;55.708;37.478;2023-08-01T05:59:36;8.93;;;3.72;;
49824;SDS011;35714;55.708;37.478;2023-08-01T06:02:02;11.38;;;5.97;;
49824;SDS011;35714;55.708;37.478;2023-08-01T06:04:28;13.68;;;4.05;;
49824;SDS011;35714;55.708;37.478;2023-08-01T06:06:53;10.32;;;5.47;;
49824;SDS011;35714;55.708;37.478;2023-08-01T06:09:19;13.27;;;4.53;;
49824;SDS011;35714;55.708;37.478;2023-08-01T06:11:45;7.00;;;2.50;;
49824;SDS011;35714;55.708;37.478;2023-08-01T06:14:10;5.88;;;2.85;;
49824;SDS011;35714;55.708;37.478;2023-08-01T06:16:36;5.65;;;2.80;;
49824;SDS011;35714;55.708;37.478;2023-08-01T06:19:02;5.00;;;2.75;;
49824;SDS011;35714;55.708;37.478;2023-08-01T06:21:28;8.18;;;3.10;;
49824;SDS011;35714;55.708;37.478;2023-08-01T06:23:54;7.03;;;2.72;;
49824;SDS011;35714;55.708;37.478;2023-08-01T06:26:19;4.65;;;2.40;;
49824;SDS011;35714;55.708;37.478;2023-08-01T06:28:45;6.47;;;2.45;;
49824;SDS011;35714;55.708;37.478;2023-08-01T06:31:11;7.95;;;2.75;;
49824;SDS011;35714;55.708;37.478;2023-08-01T06:33:36;4.45;;;2.30;;
49824;SDS011;35714;55.708;37.478;2023-08-01T06:36:02;6.78;;;2.22;;
49824;SDS011;35714;55.708;37.478;2023-08-01T06:38:29;7.18;;;2.17;;
49824;SDS011;35714;55.708;37.478;2023-08-01T06:40:55;10.90;;;2.83;;
49824;SDS011;35714;55.708;37.478;2023-08-01T06:43:20;6.50;;;2.30;;
49824;SDS011;35714;55.708;37.478;2023-08-01T06:45:46;6.43;;;3.25;;
49824;SDS011;35714;55.708;37.478;2023-08-01T06:48:11;5.18;;;2.40;;
49824;SDS011;35714;55.708;37.478;2023-08-01T06:50:37;6.90;;;2.28;;
49824;SDS011;35714;55.708;37.478;2023-08-01T06:53:03;4.82;;;1.83;;
49824;SDS011;35714;55.708;37.478;2023-08-01T06:55:28;4.72;;;1.80;;
49824;SDS011;35714;55.708;37.478;2023-08-01T06:57:54;5.20;;;1.95;;
49824;SDS011;35714;55.708;37.478;2023-08-01T07:00:20;4.70;;;2.17;;
49824;SDS011;35714;55.708;37.478;2023-08-01T07:02:46;3.97;;;2.08;;
49824;SDS011;35714;55.708;37.478;2023-08-01T07:05:12;7.43;;;2.45;;
49824;SDS011;35714;55.708;37.478;2023-08-01T07:07:38;3.88;;;1.90;;
49824;SDS011;35714;55.708;37.478;2023-08-01T07:10:03;4.72;;;2.42;;
49824;SDS011;35714;55.708;37.478;2023-08-01T07:12:30;6.78;;;2.30;;
49824;SDS011;35714;55.708;37.478;2023-08-01T07:14:56;5.43;;;2.30;;
49824;SDS011;35714;55.708;37.478;2023-08-01T07:17:21;6.65;;;2.20;;
49824;SDS011;35714;55.708;37.478;2023-08-01T07:19:47;10.50;;;2.35;;
49824;SDS011;35714;55.708;37.478;2023-08-01T07:22:13;6.10;;;2.20;;
49824;SDS011;35714;55.708;37.478;2023-08-01T07:24:38;5.00;;;2.75;;
49824;SDS011;35714;55.708;37.478;2023-08-01T07:27:04;4.07;;;2.00;;
49824;SDS011;35714;55.708;37.478;2023-08-01T07:29:30;5.82;;;1.83;;
49824;SDS011;35714;55.708;37.478;2023-08-01T07:31:56;4.60;;;2.35;;
49824;SDS011;35714;55.708;37.478;2023-08-01T07:34:21;3.60;;;1.98;;
49824;SDS011;35714;55.708;37.478;2023-08-01T07:36:50;3.65;;;2.17;;
49824;SDS011;35714;55.708;37.478;2023-08-01T07:39:16;4.65;;;1.77;;
49824;SDS011;35714;55.708;37.478;2023-08-01T07:41:42;5.15;;;2.35;;
49824;SDS011;35714;55.708;37.478;2023-08-01T07:44:08;3.75;;;2.22;;
49824;SDS011;35714;55.708;37.478;2023-08-01T07:46:33;4.57;;;2.47;;
49824;SDS011;35714;55.708;37.478;2023-08-01T07:48:59;4.10;;;2.10;;
49824;SDS011;35714;55.708;37.478;2023-08-01T07:51:25;5.32;;;2.28;;
49824;SDS011;35714;55.708;37.478;2023-08-01T07:53:52;4.03;;;2.20;;
49824;SDS011;35714;55.708;37.478;2023-08-01T07:56:19;4.95;;;2.03;;
49824;SDS011;35714;55.708;37.478;2023-08-01T07:58:45;4.47;;;2.25;;
49824;SDS011;35714;55.708;37.478;2023-08-01T08:01:11;3.65;;;1.98;;
49824;SDS011;35714;55.708;37.478;2023-08-01T08:03:37;4.22;;;2.25;;
49824;SDS011;35714;55.708;37.478;2023-08-01T08:06:02;7.55;;;2.42;;
49824;SDS011;35714;55.708;37.478;2023-08-01T08:08:29;4.95;;;2.15;;
49824;SDS011;35714;55.708;37.478;2023-08-01T08:10:55;3.50;;;2.00;;
49824;SDS011;35714;55.708;37.478;2023-08-01T08:13:21;5.05;;;2.22;;
49824;SDS011;35714;55.708;37.478;2023-08-01T08:15:47;5.70;;;1.73;;
49824;SDS011;35714;55.708;37.478;2023-08-01T08:18:13;4.38;;;2.03;;
49824;SDS011;35714;55.708;37.478;2023-08-01T08:20:42;4.70;;;1.90;;
49824;SDS011;35714;55.708;37.478;2023-08-01T08:23:09;4.72;;;2.10;;
49824;SDS011;35714;55.708;37.478;2023-08-01T08:25:36;7.25;;;2.28;;
49824;SDS011;35714;55.708;37.478;2023-08-01T08:28:02;4.13;;;2.00;;
49824;SDS011;35714;55.708;37.478;2023-08-01T08:30:28;6.70;;;1.90;;
49824;SDS011;35714;55.708;37.478;2023-08-01T08:32:53;9.93;;;2.30;;
49824;SDS011;35714;55.708;37.478;2023-08-01T08:35:19;3.97;;;1.83;;
49824;SDS011;35714;55.708;37.478;2023-08-01T08:37:45;4.97;;;1.85;;
49824;SDS011;35714;55.708;37.478;2023-08-01T08:40:12;4.55;;;2.28;;
49824;SDS011;35714;55.708;37.478;2023-08-01T08:42:38;3.60;;;1.95;;
49824;SDS011;35714;55.708;37.478;2023-08-01T08:45:05;4.95;;;1.88;;
49824;SDS011;35714;55.708;37.478;2023-08-01T08:47:34;3.40;;;1.85;;
49824;SDS011;35714;55.708;37.478;2023-08-01T08:50:02;4.07;;;1.80;;
49824;SDS011;35714;55.708;37.478;2023-08-01T08:52:29;3.60;;;1.80;;
49824;SDS011;35714;55.708;37.478;2023-08-01T08:54:55;6.97;;;2.45;;
49824;SDS011;35714;55.708;37.478;2023-08-01T08:57:21;3.92;;;2.10;;
49824;SDS011;35714;55.708;37.478;2023-08-01T08:59:48;4.65;;;2.55;;
49824;SDS011;35714;55.708;37.478;2023-08-01T09:02:15;3.75;;;1.85;;
49824;SDS011;35714;55.708;37.478;2023-08-01T09:04:42;4.57;;;1.95;;
49824;SDS011;35714;55.708;37.478;2023-08-01T09:07:08;5.35;;;2.08;;
49824;SDS011;35714;55.708;37.478;2023-08-01T09:09:36;6.85;;;2.25;;
49824;SDS011;35714;55.708;37.478;2023-08-01T09:12:03;5.78;;;2.00;;
49824;SDS011;35714;55.708;37.478;2023-08-01T09:14:29;7.70;;;1.80;;
49824;SDS011;35714;55.708;37.478;2023-08-01T09:17:04;5.78;;;2.58;;
49824;SDS011;35714;55.708;37.478;2023-08-01T09:19:31;5.00;;;2.00;;
49824;SDS011;35714;55.708;37.478;2023-08-01T09:21:56;4.97;;;2.00;;
49824;SDS011;35714;55.708;37.478;2023-08-01T09:24:22;3.85;;;1.92;;
49824;SDS011;35714;55.708;37.478;2023-08-01T09:26:48;4.85;;;1.92;;
49824;SDS011;35714;55.708;37.478;2023-08-01T09:29:18;6.10;;;2.28;;
49824;SDS011;35714;55.708;37.478;2023-08-01T09:31:45;5.53;;;2.28;;
49824;SDS011;35714;55.708;37.478;2023-08-01T09:34:20;4.25;;;2.42;;
49824;SDS011;35714;55.708;37.478;2023-08-01T09:36:47;7.10;;;3.60;;
49824;SDS011;35714;55.708;37.478;2023-08-01T09:39:17;5.22;;;3.15;;
49824;SDS011;35714;55.708;37.478;2023-08-01T09:41:44;5.18;;;2.70;;
49824;SDS011;35714;55.708;37.478;2023-08-01T09:44:10;4.40;;;2.20;;
49824;SDS011;35714;55.708;37.478;2023-08-01T09:46:37;9.27;;;3.00;;
49824;SDS011;35714;55.708;37.478;2023-08-01T09:49:06;7.05;;;2.65;;
49824;SDS011;35714;55.708;37.478;2023-08-01T09:51:33;3.60;;;2.30;;
49824;SDS011;35714;55.708;37.478;2023-08-01T09:53:58;5.63;;;2.42;;
49824;SDS011;35714;55.708;37.478;2023-08-01T09:56:27;5.85;;;2.30;;
49824;SDS011;35714;55.708;37.478;2023-08-01T09:58:55;3.83;;;2.28;;
49824;SDS011;35714;55.708;37.478;2023-08-01T10:01:22;5.30;;;2.30;;
49824;SDS011;35714;55.708;37.478;2023-08-01T10:03:49;7.57;;;2.40;;
49824;SDS011;35714;55.708;37.478;2023-08-01T10:06:18;6.65;;;4.05;;
49824;SDS011;35714;55.708;37.478;2023-08-01T10:08:49;5.55;;;3.53;;
49824;SDS011;35714;55.708;37.478;2023-08-01T10:11:22;6.93;;;3.60;;
49824;SDS011;35714;55.708;37.478;2023-08-01T10:13:48;9.20;;;4.97;;
49824;SDS011;35714;55.708;37.478;2023-08-01T10:16:15;7.22;;;3.45;;
49824;SDS011;35714;55.708;37.478;2023-08-01T10:18:41;4.80;;;2.60;;
49824;SDS011;35714;55.708;37.478;2023-08-01T10:21:08;6.88;;;3.20;;
49824;SDS011;35714;55.708;37.478;2023-08-01T10:23:37;6.40;;;2.50;;
49824;SDS011;35714;55.708;37.478;2023-08-01T10:26:05;5.50;;;2.38;;
49824;SDS011;35714;55.708;37.478;2023-08-01T10:28:32;3.83;;;2.13;;
49824;SDS011;35714;55.708;37.478;2023-08-01T10:31:11;3.67;;;2.10;;
49824;SDS011;35714;55.708;37.478;2023-08-01T10:33:39;4.68;;;1.85;;
49824;SDS011;35714;55.708;37.478;2023-08-01T10:38:46;8.55;;;2.70;;
49824;SDS011;35714;55.708;37.478;2023-08-01T10:41:35;4.13;;;2.35;;
49824;SDS011;35714;55.708;37.478;2023-08-01T10:44:08;6.28;;;3.92;;
49824;SDS011;35714;55.708;37.478;2023-08-01T10:49:20;17.23;;;10.98;;
49824;SDS011;35714;55.708;37.478;2023-08-01T10:51:57;8.02;;;3.40;;
49824;SDS011;35714;55.708;37.478;2023-08-01T10:54:24;8.27;;;4.10;;
49824;SDS011;35714;55.708;37.478;2023-08-01T10:56:55;6.28;;;3.70;;
49824;SDS011;35714;55.708;37.478;2023-08-01T10:59:23;10.85;;;3.58;;
49824;SDS011;35714;55.708;37.478;2023-08-01T11:01:50;6.28;;;3.63;;
49824;SDS011;35714;55.708;37.478;2023-08-01T11:04:23;7.47;;;3.20;;
49824;SDS011;35714;55.708;37.478;2023-08-01T11:06:49;5.95;;;3.05;;
49824;SDS011;35714;55.708;37.478;2023-08-01T11:11:42;10.75;;;2.58;;
49824;SDS011;35714;55.708;37.478;2023-08-01T11:14:08;5.22;;;2.30;;
49824;SDS011;35714;55.708;37.478;2023-08-01T11:16:34;5.00;;;2.50;;
49824;SDS011;35714;55.708;37.478;2023-08-01T11:19:02;5.30;;;2.03;;
49824;SDS011;35714;55.708;37.478;2023-08-01T11:21:28;4.38;;;2.15;;
49824;SDS011;35714;55.708;37.478;2023-08-01T11:23:53;4.20;;;2.30;;
49824;SDS011;35714;55.708;37.478;2023-08-01T11:26:19;3.38;;;1.95;;
49824;SDS011;35714;55.708;37.478;2023-08-01T11:28:46;4.35;;;2.22;;
49824;SDS011;35714;55.708;37.478;2023-08-01T11:31:11;3.38;;;2.05;;
49824;SDS011;35714;55.708;37.478;2023-08-01T11:33:38;5.43;;;1.98;;
49824;SDS011;35714;55.708;37.478;2023-08-01T11:36:04;5.50;;;2.55;;
49824;SDS011;35714;55.708;37.478;2023-08-01T11:38:31;5.78;;;2.90;;
49824;SDS011;35714;55.708;37.478;2023-08-01T11:40:59;6.50;;;2.78;;
49824;SDS011;35714;55.708;37.478;2023-08-01T11:43:26;4.47;;;2.20;;
49824;SDS011;35714;55.708;37.478;2023-08-01T11:46:02;4.65;;;2.63;;
49824;SDS011;35714;55.708;37.478;2023-08-01T11:48:28;10.65;;;3.08;;
49824;SDS011;35714;55.708;37.478;2023-08-01T11:50:57;5.10;;;2.60;;
49824;SDS011;35714;55.708;37.478;2023-08-01T11:53:23;6.00;;;2.88;;
49824;SDS011;35714;55.708;37.478;2023-08-01T11:55:50;4.53;;;2.45;;
49824;SDS011;35714;55.708;37.478;2023-08-01T11:58:31;3.55;;;2.00;;
49824;SDS011;35714;55.708;37.478;2023-08-01T12:03:45;4.05;;;2.35;;
49824;SDS011;35714;55.708;37.478;2023-08-01T12:06:11;6.43;;;2.50;;
49824;SDS011;35714;55.708;37.478;2023-08-01T12:08:39;7.07;;;2.60;;
49824;SDS011;35714;55.708;37.478;2023-08-01T12:11:17;5.10;;;2.30;;
49824;SDS011;35714;55.708;37.478;2023-08-01T12:13:46;4.65;;;2.53;;
49824;SDS011;35714;55.708;37.478;2023-08-01T12:16:13;5.45;;;3.20;;
49824;SDS011;35714;55.708;37.478;2023-08-01T12:18:40;5.50;;;3.33;;
49824;SDS011;35714;55.708;37.478;2023-08-01T12:21:08;8.70;;;2.67;;
49824;SDS011;35714;55.708;37.478;2023-08-01T12:23:35;8.18;;;2.85;;
49824;SDS011;35714;55.708;37.478;2023-08-01T12:26:01;12.27;;;3.08;;
49824;SDS011;35714;55.708;37.478;2023-08-01T12:28:26;16.60;;;3.38;;
49824;SDS011;35714;55.708;37.478;2023-08-01T12:30:52;10.15;;;3.47;;
49824;SDS011;35714;55.708;37.478;2023-08-01T12:33:18;7.63;;;3.13;;
49824;SDS011;35714;55.708;37.478;2023-08-01T12:35:44;5.47;;;2.63;;
49824;SDS011;35714;55.708;37.478;2023-08-01T12:38:09;6.00;;;3.80;;
49824;SDS011;35714;55.708;37.478;2023-08-01T12:40:35;4.10;;;2.33;;
49824;SDS011;35714;55.708;37.478;2023-08-01T12:43:01;5.30;;;2.85;;
49824;SDS011;35714;55.708;37.478;2023-08-01T12:45:27;4.32;;;2.00;;
49824;SDS011;35714;55.708;37.478;2023-08-01T12:47:52;7.88;;;2.42;;
49824;SDS011;35714;55.708;37.478;2023-08-01T12:50:18;6.05;;;1.92;;
49824;SDS011;35714;55.708;37.478;2023-08-01T12:52:44;4.93;;;2.30;;
49824;SDS011;35714;55.708;37.478;2023-08-01T12:55:09;4.85;;;2.28;;
49824;SDS011;35714;55.708;37.478;2023-08-01T12:57:35;5.43;;;2.40;;
49824;SDS011;35714;55.708;37.478;2023-08-01T13:00:01;4.40;;;2.50;;
49824;SDS011;35714;55.708;37.478;2023-08-01T13:02:31;6.00;;;2.30;;
49824;SDS011;35714;55.708;37.478;2023-08-01T13:04:56;3.75;;;2.08;;
49824;SDS011;35714;55.708;37.478;2023-08-01T13:07:22;3.85;;;2.33;;
49824;SDS011;35714;55.708;37.478;2023-08-01T13:09:48;4.95;;;2.20;;
49824;SDS011;35714;55.708;37.478;2023-08-01T13:12:13;5.18;;;2.10;;
49824;SDS011;35714;55.708;37.478;2023-08-01T13:14:39;4.35;;;2.08;;
49824;SDS011;35714;55.708;37.478;2023-08-01T13:17:05;3.50;;;1.90;;
49824;SDS011;35714;55.708;37.478;2023-08-01T13:19:31;5.07;;;2.25;;
49824;SDS011;35714;55.708;37.478;2023-08-01T13:21:56;4.78;;;2.00;;
49824;SDS011;35714;55.708;37.478;2023-08-01T13:24:22;4.40;;;1.85;;
49824;SDS011;35714;55.708;37.478;2023-08-01T13:26:48;8.30;;;1.85;;
49824;SDS011;35714;55.708;37.478;2023-08-01T13:29:14;4.85;;;1.98;;
49824;SDS011;35714;55.708;37.478;2023-08-01T13:31:39;12.30;;;2.00;;
49824;SDS011;35714;55.708;37.478;2023-08-01T13:34:05;5.38;;;1.85;;
49824;SDS011;35714;55.708;37.478;2023-08-01T13:36:31;6.43;;;1.77;;
49824;SDS011;35714;55.708;37.478;2023-08-01T13:38:56;4.65;;;1.63;;
49824;SDS011;35714;55.708;37.478;2023-08-01T13:41:22;4.25;;;1.50;;
49824;SDS011;35714;55.708;37.478;2023-08-01T13:43:47;4.88;;;2.38;;
49824;SDS011;35714;55.708;37.478;2023-08-01T13:46:14;4.55;;;2.17;;
49824;SDS011;35714;55.708;37.478;2023-08-01T13:48:41;4.75;;;2.25;;
49824;SDS011;35714;55.708;37.478;2023-08-01T13:51:08;4.50;;;1.70;;
49824;SDS011;35714;55.708;37.478;2023-08-01T13:53:33;4.50;;;1.63;;
49824;SDS011;35714;55.708;37.478;2023-08-01T13:55:59;6.38;;;1.90;;
49824;SDS011;35714;55.708;37.478;2023-08-01T13:58:25;6.03;;;1.95;;
49824;SDS011;35714;55.708;37.478;2023-08-01T14:00:51;4.40;;;2.00;;
49824;SDS011;35714;55.708;37.478;2023-08-01T14:03:16;6.00;;;1.90;;
49824;SDS011;35714;55.708;37.478;2023-08-01T14:05:42;5.75;;;1.98;;
49824;SDS011;35714;55.708;37.478;2023-08-01T14:08:07;4.28;;;2.15;;
49824;SDS011;35714;55.708;37.478;2023-08-01T14:10:33;3.40;;;1.75;;
49824;SDS011;35714;55.708;37.478;2023-08-01T14:12:59;4.90;;;1.92;;
49824;SDS011;35714;55.708;37.478;2023-08-01T14:15:24;4.10;;;2.10;;
49824;SDS011;35714;55.708;37.478;2023-08-01T14:17:50;10.00;;;3.22;;
49824;SDS011;35714;55.708;37.478;2023-08-01T14:20:18;4.28;;;1.80;;
49824;SDS011;35714;55.708;37.478;2023-08-01T14:22:44;3.33;;;1.67;;
49824;SDS011;35714;55.708;37.478;2023-08-01T14:25:10;8.68;;;1.92;;
49824;SDS011;35714;55.708;37.478;2023-08-01T14:27:36;4.13;;;2.00;;
49824;SDS011;35714;55.708;37.478;2023-08-01T14:30:02;4.18;;;2.40;;
49824;SDS011;35714;55.708;37.478;2023-08-01T14:32:30;6.07;;;2.90;;
49824;SDS011;35714;55.708;37.478;2023-08-01T14:34:56;8.00;;;4.70;;
49824;SDS011;35714;55.708;37.478;2023-08-01T14:37:21;4.82;;;2.70;;